sensor_id;sensor_type;location;lat;lon;timestamp;P1;durP1;ratioP1;P2;durP2;ratioP2
31284;SDS011;56605;51.516;6.742;2022-11-06T00:00:16;13.05;;;4.25;;
31284;SDS011;56605;51.516;6.742;2022-11-06T00:02:42;8.52;;;4.30;;
31284;SDS011;56605;51.516;6.742;2022-11-06T00:05:08;13.55;;;4.90;;
31284;SDS011;56605;51.516;6.742;2022-11-06T00:07:53;13.13;;;4.88;;
31284;SDS011;56605;51.516;6.742;2022-11-06T00:10:18;9.25;;;3.78;;
31284;SDS011;56605;51.516;6.742;2022-11-06T00:12:44;4.47;;;3.00;;
31284;SDS011;56605;51.516;6.742;2022-11-06T00:15:10;8.85;;;3.40;;
31284;SDS011;56605;51.516;6.742;2022-11-06T00:17:36;9.55;;;4.30;;
31284;SDS011;56605;51.516;6.742;2022-11-06T00:20:02;12.18;;;3.40;;
31284;SDS011;56605;51.516;6.742;2022-11-06T00:22:35;9.48;;;3.90;;
31284;SDS011;56605;51.516;6.742;2022-11-06T00:25:02;10.55;;;4.28;;
31284;SDS011;56605;51.516;6.742;2022-11-06T00:27:28;6.28;;;3.33;;
31284;SDS011;56605;51.516;6.742;2022-11-06T00:29:54;9.38;;;3.53;;
31284;SDS011;56605;51.516;6.742;2022-11-06T00:32:19;8.52;;;3.75;;
31284;SDS011;56605;51.516;6.742;2022-11-06T00:34:45;8.85;;;4.70;;
31284;SDS011;56605;51.516;6.742;2022-11-06T00:37:11;9.57;;;3.63;;
31284;SDS011;56605;51.516;6.742;2022-11-06T00:39:37;6.93;;;3.40;;
31284;SDS011;56605;51.516;6.742;2022-11-06T00:42:03;6.88;;;3.20;;
31284;SDS011;56605;51.516;6.742;2022-11-06T00:44:28;9.32;;;4.88;;
31284;SDS011;56605;51.516;6.742;2022-11-06T00:46:54;13.15;;;4.30;;
31284;SDS011;56605;51.516;6.742;2022-11-06T00:49:19;11.38;;;3.63;;
31284;SDS011;56605;51.516;6.742;2022-11-06T00:51:44;7.28;;;4.03;;
31284;SDS011;56605;51.516;6.742;2022-11-06T00:54:11;11.88;;;4.18;;
31284;SDS011;56605;51.516;6.742;2022-11-06T00:56:37;11.40;;;4.13;;
31284;SDS011;56605;51.516;6.742;2022-11-06T00:59:04;11.25;;;5.00;;
31284;SDS011;56605;51.516;6.742;2022-11-06T01:01:35;8.60;;;4.32;;
31284;SDS011;56605;51.516;6.742;2022-11-06T01:06:36;7.13;;;3.40;;
31284;SDS011;56605;51.516;6.742;2022-11-06T01:09:03;9.45;;;4.35;;
31284;SDS011;56605;51.516;6.742;2022-11-06T01:11:32;8.82;;;4.25;;
31284;SDS011;56605;51.516;6.742;2022-11-06T01:14:05;9.48;;;4.15;;
31284;SDS011;56605;51.516;6.742;2022-11-06T01:16:33;9.45;;;4.70;;
31284;SDS011;56605;51.516;6.742;2022-11-06T01:18:59;14.90;;;4.35;;
31284;SDS011;56605;51.516;6.742;2022-11-06T01:21:27;10.65;;;4.88;;
31284;SDS011;56605;51.516;6.742;2022-11-06T01:23:55;9.70;;;4.90;;
31284;SDS011;56605;51.516;6.742;2022-11-06T01:26:25;11.82;;;5.15;;
31284;SDS011;56605;51.516;6.742;2022-11-06T01:28:52;8.35;;;3.88;;
31284;SDS011;56605;51.516;6.742;2022-11-06T01:31:20;12.85;;;4.82;;
31284;SDS011;56605;51.516;6.742;2022-11-06T01:33:47;16.73;;;5.65;;
31284;SDS011;56605;51.516;6.742;2022-11-06T01:36:13;8.63;;;5.05;;
31284;SDS011;56605;51.516;6.742;2022-11-06T01:38:44;10.07;;;4.80;;
31284;SDS011;56605;51.516;6.742;2022-11-06T01:41:12;12.25;;;5.78;;
31284;SDS011;56605;51.516;6.742;2022-11-06T01:46:30;9.20;;;3.92;;
31284;SDS011;56605;51.516;6.742;2022-11-06T01:51:37;9.23;;;3.92;;
31284;SDS011;56605;51.516;6.742;2022-11-06T01:54:07;14.85;;;5.15;;
31284;SDS011;56605;51.516;6.742;2022-11-06T01:56:35;8.10;;;4.63;;
31284;SDS011;56605;51.516;6.742;2022-11-06T01:59:02;10.82;;;4.97;;
31284;SDS011;56605;51.516;6.742;2022-11-06T02:01:29;9.20;;;4.85;;
31284;SDS011;56605;51.516;6.742;2022-11-06T02:03:58;12.52;;;5.65;;
31284;SDS011;56605;51.516;6.742;2022-11-06T02:06:39;12.05;;;5.40;;
31284;SDS011;56605;51.516;6.742;2022-11-06T02:09:05;7.75;;;4.53;;
31284;SDS011;56605;51.516;6.742;2022-11-06T02:11:39;16.88;;;5.30;;
31284;SDS011;56605;51.516;6.742;2022-11-06T02:14:22;12.35;;;5.03;;
31284;SDS011;56605;51.516;6.742;2022-11-06T02:17:00;17.98;;;5.80;;
31284;SDS011;56605;51.516;6.742;2022-11-06T02:19:38;9.20;;;3.47;;
31284;SDS011;56605;51.516;6.742;2022-11-06T02:22:27;10.30;;;4.53;;
31284;SDS011;56605;51.516;6.742;2022-11-06T02:25:14;11.55;;;4.03;;
31284;SDS011;56605;51.516;6.742;2022-11-06T02:28:08;15.18;;;4.70;;
31284;SDS011;56605;51.516;6.742;2022-11-06T02:30:40;8.88;;;3.95;;
31284;SDS011;56605;51.516;6.742;2022-11-06T02:33:09;6.13;;;2.88;;
31284;SDS011;56605;51.516;6.742;2022-11-06T02:35:57;8.68;;;3.72;;
31284;SDS011;56605;51.516;6.742;2022-11-06T02:38:28;9.02;;;3.72;;
31284;SDS011;56605;51.516;6.742;2022-11-06T02:40:59;7.53;;;3.55;;
31284;SDS011;56605;51.516;6.742;2022-11-06T02:43:34;7.85;;;3.15;;
31284;SDS011;56605;51.516;6.742;2022-11-06T02:49:13;8.95;;;3.63;;
31284;SDS011;56605;51.516;6.742;2022-11-06T02:51:47;3.70;;;2.13;;
31284;SDS011;56605;51.516;6.742;2022-11-06T02:54:18;12.82;;;4.38;;
31284;SDS011;56605;51.516;6.742;2022-11-06T02:56:45;8.27;;;4.40;;
31284;SDS011;56605;51.516;6.742;2022-11-06T02:59:22;9.82;;;3.00;;
31284;SDS011;56605;51.516;6.742;2022-11-06T03:01:57;5.65;;;2.63;;
31284;SDS011;56605;51.516;6.742;2022-11-06T03:04:34;10.65;;;4.47;;
31284;SDS011;56605;51.516;6.742;2022-11-06T03:07:08;11.50;;;4.60;;
31284;SDS011;56605;51.516;6.742;2022-11-06T03:09:38;8.10;;;3.85;;
31284;SDS011;56605;51.516;6.742;2022-11-06T03:12:12;6.07;;;3.30;;
31284;SDS011;56605;51.516;6.742;2022-11-06T03:14:51;9.07;;;3.53;;
31284;SDS011;56605;51.516;6.742;2022-11-06T03:17:36;12.32;;;3.13;;
31284;SDS011;56605;51.516;6.742;2022-11-06T03:20:20;9.38;;;2.65;;
31284;SDS011;56605;51.516;6.742;2022-11-06T03:23:46;9.63;;;3.08;;
31284;SDS011;56605;51.516;6.742;2022-11-06T03:26:18;12.68;;;3.30;;
31284;SDS011;56605;51.516;6.742;2022-11-06T03:29:05;5.72;;;2.35;;
31284;SDS011;56605;51.516;6.742;2022-11-06T03:31:38;8.88;;;3.75;;
31284;SDS011;56605;51.516;6.742;2022-11-06T03:34:19;8.52;;;3.22;;
31284;SDS011;56605;51.516;6.742;2022-11-06T03:36:56;5.65;;;2.70;;
31284;SDS011;56605;51.516;6.742;2022-11-06T03:39:30;5.88;;;2.83;;
31284;SDS011;56605;51.516;6.742;2022-11-06T03:42:04;5.90;;;2.75;;
31284;SDS011;56605;51.516;6.742;2022-11-06T03:44:35;10.25;;;3.90;;
31284;SDS011;56605;51.516;6.742;2022-11-06T03:49:45;5.65;;;3.17;;
31284;SDS011;56605;51.516;6.742;2022-11-06T03:52:23;11.95;;;4.53;;
31284;SDS011;56605;51.516;6.742;2022-11-06T03:55:04;12.52;;;3.63;;
31284;SDS011;56605;51.516;6.742;2022-11-06T03:57:36;17.27;;;5.75;;
31284;SDS011;56605;51.516;6.742;2022-11-06T04:00:07;15.65;;;7.07;;
31284;SDS011;56605;51.516;6.742;2022-11-06T04:02:34;10.20;;;4.90;;
31284;SDS011;56605;51.516;6.742;2022-11-06T04:05:05;6.30;;;3.33;;
31284;SDS011;56605;51.516;6.742;2022-11-06T04:07:36;8.35;;;3.22;;
31284;SDS011;56605;51.516;6.742;2022-11-06T04:10:07;10.77;;;3.28;;
31284;SDS011;56605;51.516;6.742;2022-11-06T04:12:54;9.52;;;4.00;;
31284;SDS011;56605;51.516;6.742;2022-11-06T04:15:46;9.90;;;4.15;;
31284;SDS011;56605;51.516;6.742;2022-11-06T04:18:16;11.32;;;3.53;;
31284;SDS011;56605;51.516;6.742;2022-11-06T04:20:54;3.45;;;1.85;;
31284;SDS011;56605;51.516;6.742;2022-11-06T04:23:50;7.53;;;2.58;;
31284;SDS011;56605;51.516;6.742;2022-11-06T04:27:14;13.35;;;3.38;;
31284;SDS011;56605;51.516;6.742;2022-11-06T04:38:18;6.05;;;2.95;;
31284;SDS011;56605;51.516;6.742;2022-11-06T04:46:13;9.85;;;2.97;;
31284;SDS011;56605;51.516;6.742;2022-11-06T04:48:44;7.85;;;2.40;;
31284;SDS011;56605;51.516;6.742;2022-11-06T04:51:11;5.25;;;2.55;;
31284;SDS011;56605;51.516;6.742;2022-11-06T04:53:38;11.20;;;3.90;;
31284;SDS011;56605;51.516;6.742;2022-11-06T04:56:06;5.22;;;2.50;;
31284;SDS011;56605;51.516;6.742;2022-11-06T04:58:34;9.38;;;2.72;;
31284;SDS011;56605;51.516;6.742;2022-11-06T05:00:59;8.10;;;1.85;;
31284;SDS011;56605;51.516;6.742;2022-11-06T05:03:25;6.55;;;2.70;;
31284;SDS011;56605;51.516;6.742;2022-11-06T05:05:50;7.75;;;2.63;;
31284;SDS011;56605;51.516;6.742;2022-11-06T05:08:16;6.10;;;1.92;;
31284;SDS011;56605;51.516;6.742;2022-11-06T05:10:43;4.60;;;2.08;;
31284;SDS011;56605;51.516;6.742;2022-11-06T05:13:09;5.72;;;2.17;;
31284;SDS011;56605;51.516;6.742;2022-11-06T05:15:35;6.18;;;1.98;;
31284;SDS011;56605;51.516;6.742;2022-11-06T05:18:01;9.30;;;1.92;;
31284;SDS011;56605;51.516;6.742;2022-11-06T05:20:26;6.50;;;2.30;;
31284;SDS011;56605;51.516;6.742;2022-11-06T05:22:52;3.95;;;1.70;;
31284;SDS011;56605;51.516;6.742;2022-11-06T05:25:24;4.07;;;1.60;;
31284;SDS011;56605;51.516;6.742;2022-11-06T05:27:59;15.30;;;2.00;;
31284;SDS011;56605;51.516;6.742;2022-11-06T05:30:26;4.65;;;1.85;;
31284;SDS011;56605;51.516;6.742;2022-11-06T05:32:51;13.93;;;2.60;;
31284;SDS011;56605;51.516;6.742;2022-11-06T05:35:18;11.02;;;1.67;;
31284;SDS011;56605;51.516;6.742;2022-11-06T05:37:44;5.15;;;1.13;;
31284;SDS011;56605;51.516;6.742;2022-11-06T05:40:10;7.97;;;2.05;;
31284;SDS011;56605;51.516;6.742;2022-11-06T05:42:36;8.88;;;2.53;;
31284;SDS011;56605;51.516;6.742;2022-11-06T05:45:03;3.55;;;1.58;;
31284;SDS011;56605;51.516;6.742;2022-11-06T05:47:29;3.53;;;1.50;;
31284;SDS011;56605;51.516;6.742;2022-11-06T05:49:56;1.67;;;1.02;;
31284;SDS011;56605;51.516;6.742;2022-11-06T05:52:21;2.80;;;1.83;;
31284;SDS011;56605;51.516;6.742;2022-11-06T05:54:46;3.38;;;1.90;;
31284;SDS011;56605;51.516;6.742;2022-11-06T05:57:12;5.18;;;2.10;;
31284;SDS011;56605;51.516;6.742;2022-11-06T05:59:37;7.57;;;1.90;;
31284;SDS011;56605;51.516;6.742;2022-11-06T06:02:02;3.97;;;1.17;;
31284;SDS011;56605;51.516;6.742;2022-11-06T06:04:28;2.45;;;1.50;;
31284;SDS011;56605;51.516;6.742;2022-11-06T06:06:53;3.22;;;1.58;;
31284;SDS011;56605;51.516;6.742;2022-11-06T06:09:18;3.50;;;1.73;;
31284;SDS011;56605;51.516;6.742;2022-11-06T06:11:43;2.13;;;1.50;;
31284;SDS011;56605;51.516;6.742;2022-11-06T06:14:09;7.25;;;1.90;;
31284;SDS011;56605;51.516;6.742;2022-11-06T06:16:34;2.38;;;1.33;;
31284;SDS011;56605;51.516;6.742;2022-11-06T06:18:59;7.47;;;1.80;;
31284;SDS011;56605;51.516;6.742;2022-11-06T06:21:25;7.13;;;1.25;;
31284;SDS011;56605;51.516;6.742;2022-11-06T06:23:50;6.82;;;1.90;;
31284;SDS011;56605;51.516;6.742;2022-11-06T06:26:16;6.50;;;1.83;;
31284;SDS011;56605;51.516;6.742;2022-11-06T06:28:41;8.13;;;2.70;;
31284;SDS011;56605;51.516;6.742;2022-11-06T06:31:06;9.65;;;2.42;;
31284;SDS011;56605;51.516;6.742;2022-11-06T06:33:33;8.63;;;1.58;;
31284;SDS011;56605;51.516;6.742;2022-11-06T06:36:01;3.15;;;1.45;;
31284;SDS011;56605;51.516;6.742;2022-11-06T06:38:27;4.65;;;1.77;;
31284;SDS011;56605;51.516;6.742;2022-11-06T06:40:52;14.52;;;1.95;;
31284;SDS011;56605;51.516;6.742;2022-11-06T06:43:18;5.03;;;2.83;;
31284;SDS011;56605;51.516;6.742;2022-11-06T06:45:43;6.28;;;2.50;;
31284;SDS011;56605;51.516;6.742;2022-11-06T06:48:08;11.95;;;3.35;;
31284;SDS011;56605;51.516;6.742;2022-11-06T06:50:34;9.60;;;2.17;;
31284;SDS011;56605;51.516;6.742;2022-11-06T06:52:59;16.30;;;4.03;;
31284;SDS011;56605;51.516;6.742;2022-11-06T06:55:25;5.18;;;3.00;;
31284;SDS011;56605;51.516;6.742;2022-11-06T06:58:00;9.30;;;2.90;;
31284;SDS011;56605;51.516;6.742;2022-11-06T07:00:26;6.18;;;2.30;;
31284;SDS011;56605;51.516;6.742;2022-11-06T07:02:52;8.15;;;1.58;;
31284;SDS011;56605;51.516;6.742;2022-11-06T07:05:18;9.05;;;2.28;;
31284;SDS011;56605;51.516;6.742;2022-11-06T07:07:43;7.30;;;1.88;;
31284;SDS011;56605;51.516;6.742;2022-11-06T07:10:09;6.40;;;1.73;;
31284;SDS011;56605;51.516;6.742;2022-11-06T07:12:34;11.65;;;2.47;;
31284;SDS011;56605;51.516;6.742;2022-11-06T07:14:59;5.32;;;1.90;;
31284;SDS011;56605;51.516;6.742;2022-11-06T07:17:25;7.85;;;2.22;;
31284;SDS011;56605;51.516;6.742;2022-11-06T07:19:51;7.00;;;2.47;;
31284;SDS011;56605;51.516;6.742;2022-11-06T07:22:16;6.63;;;2.92;;
31284;SDS011;56605;51.516;6.742;2022-11-06T07:24:42;3.65;;;1.80;;
31284;SDS011;56605;51.516;6.742;2022-11-06T07:27:07;12.48;;;2.78;;
31284;SDS011;56605;51.516;6.742;2022-11-06T07:29:32;8.32;;;2.53;;
31284;SDS011;56605;51.516;6.742;2022-11-06T07:31:58;10.52;;;3.00;;
31284;SDS011;56605;51.516;6.742;2022-11-06T07:34:23;6.25;;;2.38;;
31284;SDS011;56605;51.516;6.742;2022-11-06T07:36:48;4.90;;;1.80;;
31284;SDS011;56605;51.516;6.742;2022-11-06T07:39:13;6.38;;;2.17;;
31284;SDS011;56605;51.516;6.742;2022-11-06T07:41:39;5.95;;;2.33;;
31284;SDS011;56605;51.516;6.742;2022-11-06T07:44:04;7.13;;;2.88;;
31284;SDS011;56605;51.516;6.742;2022-11-06T07:46:30;14.35;;;4.43;;
31284;SDS011;56605;51.516;6.742;2022-11-06T07:48:55;5.97;;;2.85;;
31284;SDS011;56605;51.516;6.742;2022-11-06T07:51:20;6.35;;;2.08;;
31284;SDS011;56605;51.516;6.742;2022-11-06T07:53:46;10.48;;;2.20;;
31284;SDS011;56605;51.516;6.742;2022-11-06T07:56:11;5.97;;;2.08;;
31284;SDS011;56605;51.516;6.742;2022-11-06T07:58:37;5.57;;;1.95;;
31284;SDS011;56605;51.516;6.742;2022-11-06T08:01:02;3.15;;;1.88;;
31284;SDS011;56605;51.516;6.742;2022-11-06T08:03:28;4.57;;;2.20;;
31284;SDS011;56605;51.516;6.742;2022-11-06T08:05:57;5.97;;;1.98;;
31284;SDS011;56605;51.516;6.742;2022-11-06T08:08:23;6.85;;;1.98;;
31284;SDS011;56605;51.516;6.742;2022-11-06T08:10:48;5.60;;;1.58;;
31284;SDS011;56605;51.516;6.742;2022-11-06T08:13:16;5.47;;;2.33;;
31284;SDS011;56605;51.516;6.742;2022-11-06T08:15:42;8.45;;;2.97;;
31284;SDS011;56605;51.516;6.742;2022-11-06T08:18:08;8.52;;;2.58;;
31284;SDS011;56605;51.516;6.742;2022-11-06T08:20:35;7.93;;;2.30;;
31284;SDS011;56605;51.516;6.742;2022-11-06T08:23:02;9.00;;;2.50;;
31284;SDS011;56605;51.516;6.742;2022-11-06T08:25:29;3.25;;;1.52;;
31284;SDS011;56605;51.516;6.742;2022-11-06T08:27:56;7.07;;;1.35;;
31284;SDS011;56605;51.516;6.742;2022-11-06T08:30:23;5.90;;;1.65;;
31284;SDS011;56605;51.516;6.742;2022-11-06T08:32:49;6.95;;;2.20;;
31284;SDS011;56605;51.516;6.742;2022-11-06T08:35:14;15.32;;;3.10;;
31284;SDS011;56605;51.516;6.742;2022-11-06T08:37:40;5.35;;;1.90;;
31284;SDS011;56605;51.516;6.742;2022-11-06T08:40:06;6.95;;;2.42;;
31284;SDS011;56605;51.516;6.742;2022-11-06T08:42:31;7.50;;;1.95;;
31284;SDS011;56605;51.516;6.742;2022-11-06T08:44:57;9.50;;;2.80;;
31284;SDS011;56605;51.516;6.742;2022-11-06T08:47:22;6.10;;;2.10;;
31284;SDS011;56605;51.516;6.742;2022-11-06T08:49:47;8.00;;;2.00;;
31284;SDS011;56605;51.516;6.742;2022-11-06T08:52:13;9.13;;;2.30;;
31284;SDS011;56605;51.516;6.742;2022-11-06T08:54:38;8.00;;;3.17;;
31284;SDS011;56605;51.516;6.742;2022-11-06T08:57:03;4.40;;;1.50;;
31284;SDS011;56605;51.516;6.742;2022-11-06T08:59:29;4.65;;;2.75;;
31284;SDS011;56605;51.516;6.742;2022-11-06T09:01:55;10.73;;;3.35;;
31284;SDS011;56605;51.516;6.742;2022-11-06T09:04:24;11.00;;;2.85;;
31284;SDS011;56605;51.516;6.742;2022-11-06T09:06:58;12.48;;;4.20;;
31284;SDS011;56605;51.516;6.742;2022-11-06T09:09:23;8.02;;;4.07;;
31284;SDS011;56605;51.516;6.742;2022-11-06T09:11:56;10.07;;;3.13;;
31284;SDS011;56605;51.516;6.742;2022-11-06T09:14:21;7.65;;;2.47;;
31284;SDS011;56605;51.516;6.742;2022-11-06T09:16:47;9.02;;;3.35;;
31284;SDS011;56605;51.516;6.742;2022-11-06T09:19:12;6.53;;;2.90;;
31284;SDS011;56605;51.516;6.742;2022-11-06T09:21:37;10.77;;;4.05;;
31284;SDS011;56605;51.516;6.742;2022-11-06T09:24:04;4.43;;;1.77;;
31284;SDS011;56605;51.516;6.742;2022-11-06T09:26:30;4.97;;;2.35;;
31284;SDS011;56605;51.516;6.742;2022-11-06T09:28:55;7.65;;;1.92;;
31284;SDS011;56605;51.516;6.742;2022-11-06T09:31:20;6.90;;;2.33;;
31284;SDS011;56605;51.516;6.742;2022-11-06T09:33:45;2.33;;;1.45;;
31284;SDS011;56605;51.516;6.742;2022-11-06T09:36:11;6.90;;;1.77;;
31284;SDS011;56605;51.516;6.742;2022-11-06T09:38:36;6.70;;;1.77;;
31284;SDS011;56605;51.516;6.742;2022-11-06T09:41:02;3.10;;;1.88;;
31284;SDS011;56605;51.516;6.742;2022-11-06T09:46:24;3.78;;;1.65;;
31284;SDS011;56605;51.516;6.742;2022-11-06T09:48:57;5.80;;;1.95;;
31284;SDS011;56605;51.516;6.742;2022-11-06T09:51:31;10.32;;;1.77;;
31284;SDS011;56605;51.516;6.742;2022-11-06T09:56:32;6.50;;;1.70;;
31284;SDS011;56605;51.516;6.742;2022-11-06T09:59:02;12.52;;;1.83;;
31284;SDS011;56605;51.516;6.742;2022-11-06T10:01:39;16.55;;;1.75;;
31284;SDS011;56605;51.516;6.742;2022-11-06T10:04:13;2.88;;;1.40;;
31284;SDS011;56605;51.516;6.742;2022-11-06T10:06:47;2.40;;;1.10;;
31284;SDS011;56605;51.516;6.742;2022-11-06T10:09:13;10.02;;;1.83;;
31284;SDS011;56605;51.516;6.742;2022-11-06T10:11:44;5.57;;;1.85;;
31284;SDS011;56605;51.516;6.742;2022-11-06T10:17:09;3.17;;;1.27;;
31284;SDS011;56605;51.516;6.742;2022-11-06T10:19:49;8.07;;;1.33;;
31284;SDS011;56605;51.516;6.742;2022-11-06T10:22:39;3.60;;;1.38;;
31284;SDS011;56605;51.516;6.742;2022-11-06T10:27:48;5.63;;;1.38;;
31284;SDS011;56605;51.516;6.742;2022-11-06T10:30:22;3.35;;;1.77;;
31284;SDS011;56605;51.516;6.742;2022-11-06T10:35:39;3.55;;;1.70;;
31284;SDS011;56605;51.516;6.742;2022-11-06T10:40:42;2.33;;;1.55;;
31284;SDS011;56605;51.516;6.742;2022-11-06T10:48:54;3.90;;;1.40;;
31284;SDS011;56605;51.516;6.742;2022-11-06T10:54:10;3.40;;;1.73;;
31284;SDS011;56605;51.516;6.742;2022-11-06T10:59:31;4.90;;;2.13;;
31284;SDS011;56605;51.516;6.742;2022-11-06T11:01:57;4.13;;;1.58;;
31284;SDS011;56605;51.516;6.742;2022-11-06T11:04:23;4.68;;;1.10;;
31284;SDS011;56605;51.516;6.742;2022-11-06T11:06:48;5.57;;;1.92;;
31284;SDS011;56605;51.516;6.742;2022-11-06T11:09:27;7.47;;;1.60;;
31284;SDS011;56605;51.516;6.742;2022-11-06T11:11:57;6.13;;;1.73;;
31284;SDS011;56605;51.516;6.742;2022-11-06T11:14:23;7.78;;;1.65;;
31284;SDS011;56605;51.516;6.742;2022-11-06T11:16:50;2.80;;;1.80;;
31284;SDS011;56605;51.516;6.742;2022-11-06T11:21:59;3.85;;;1.75;;
31284;SDS011;56605;51.516;6.742;2022-11-06T11:24:26;3.67;;;1.20;;
31284;SDS011;56605;51.516;6.742;2022-11-06T11:26:56;7.43;;;1.48;;
31284;SDS011;56605;51.516;6.742;2022-11-06T11:32:05;5.38;;;1.63;;
31284;SDS011;56605;51.516;6.742;2022-11-06T11:34:32;7.20;;;1.83;;
31284;SDS011;56605;51.516;6.742;2022-11-06T11:37:04;7.53;;;1.63;;
31284;SDS011;56605;51.516;6.742;2022-11-06T11:39:38;2.95;;;1.70;;
31284;SDS011;56605;51.516;6.742;2022-11-06T11:47:50;4.68;;;1.77;;
31284;SDS011;56605;51.516;6.742;2022-11-06T11:50:16;3.45;;;1.52;;
31284;SDS011;56605;51.516;6.742;2022-11-06T11:52:50;7.75;;;1.55;;
31284;SDS011;56605;51.516;6.742;2022-11-06T11:55:21;7.13;;;1.92;;
31284;SDS011;56605;51.516;6.742;2022-11-06T11:57:50;3.58;;;1.42;;
31284;SDS011;56605;51.516;6.742;2022-11-06T12:00:19;3.50;;;1.50;;
31284;SDS011;56605;51.516;6.742;2022-11-06T12:02:48;4.82;;;1.52;;
31284;SDS011;56605;51.516;6.742;2022-11-06T12:05:19;5.70;;;1.40;;
31284;SDS011;56605;51.516;6.742;2022-11-06T12:07:48;5.05;;;1.35;;
31284;SDS011;56605;51.516;6.742;2022-11-06T12:12:59;2.13;;;1.10;;
31284;SDS011;56605;51.516;6.742;2022-11-06T12:18:12;3.97;;;1.35;;
31284;SDS011;56605;51.516;6.742;2022-11-06T12:20:41;8.40;;;1.73;;
31284;SDS011;56605;51.516;6.742;2022-11-06T12:23:19;8.23;;;1.67;;
31284;SDS011;56605;51.516;6.742;2022-11-06T12:29:16;5.65;;;1.70;;
31284;SDS011;56605;51.516;6.742;2022-11-06T12:39:48;3.88;;;1.35;;
31284;SDS011;56605;51.516;6.742;2022-11-06T12:42:18;3.22;;;1.42;;
31284;SDS011;56605;51.516;6.742;2022-11-06T12:44:46;3.60;;;1.20;;
31284;SDS011;56605;51.516;6.742;2022-11-06T12:47:25;2.13;;;1.05;;
31284;SDS011;56605;51.516;6.742;2022-11-06T12:55:41;5.60;;;1.52;;
31284;SDS011;56605;51.516;6.742;2022-11-06T12:58:16;3.22;;;1.40;;
31284;SDS011;56605;51.516;6.742;2022-11-06T13:01:03;4.35;;;1.83;;
31284;SDS011;56605;51.516;6.742;2022-11-06T13:09:36;2.22;;;1.17;;
31284;SDS011;56605;51.516;6.742;2022-11-06T13:12:40;6.07;;;1.55;;
31284;SDS011;56605;51.516;6.742;2022-11-06T13:15:22;4.30;;;1.33;;
31284;SDS011;56605;51.516;6.742;2022-11-06T13:18:05;3.05;;;1.30;;
31284;SDS011;56605;51.516;6.742;2022-11-06T13:20:43;5.47;;;1.85;;
31284;SDS011;56605;51.516;6.742;2022-11-06T13:25:59;6.72;;;1.85;;
31284;SDS011;56605;51.516;6.742;2022-11-06T13:28:34;3.70;;;1.60;;
31284;SDS011;56605;51.516;6.742;2022-11-06T13:31:05;4.22;;;1.15;;
31284;SDS011;56605;51.516;6.742;2022-11-06T13:33:38;8.32;;;2.13;;
31284;SDS011;56605;51.516;6.742;2022-11-06T13:36:11;5.85;;;1.80;;
31284;SDS011;56605;51.516;6.742;2022-11-06T13:38:44;2.28;;;1.38;;
31284;SDS011;56605;51.516;6.742;2022-11-06T13:41:14;6.00;;;2.13;;
31284;SDS011;56605;51.516;6.742;2022-11-06T13:43:45;7.18;;;1.50;;
31284;SDS011;56605;51.516;6.742;2022-11-06T13:49:03;5.93;;;2.10;;
31284;SDS011;56605;51.516;6.742;2022-11-06T13:54:30;4.38;;;1.65;;
31284;SDS011;56605;51.516;6.742;2022-11-06T14:03:11;4.20;;;1.75;;
31284;SDS011;56605;51.516;6.742;2022-11-06T14:05:50;2.72;;;1.50;;
31284;SDS011;56605;51.516;6.742;2022-11-06T14:08:23;2.85;;;1.77;;
31284;SDS011;56605;51.516;6.742;2022-11-06T14:10:56;4.32;;;1.52;;
31284;SDS011;56605;51.516;6.742;2022-11-06T14:13:31;5.20;;;1.63;;
31284;SDS011;56605;51.516;6.742;2022-11-06T14:16:00;3.20;;;1.33;;
31284;SDS011;56605;51.516;6.742;2022-11-06T14:18:26;4.22;;;1.85;;
31284;SDS011;56605;51.516;6.742;2022-11-06T14:21:24;2.65;;;1.50;;
31284;SDS011;56605;51.516;6.742;2022-11-06T14:27:04;2.00;;;1.60;;
31284;SDS011;56605;51.516;6.742;2022-11-06T14:30:05;3.63;;;1.15;;
31284;SDS011;56605;51.516;6.742;2022-11-06T14:32:41;4.05;;;1.42;;
31284;SDS011;56605;51.516;6.742;2022-11-06T14:37:53;5.13;;;1.90;;
31284;SDS011;56605;51.516;6.742;2022-11-06T14:40:33;5.40;;;1.70;;
31284;SDS011;56605;51.516;6.742;2022-11-06T14:43:10;7.35;;;3.15;;
31284;SDS011;56605;51.516;6.742;2022-11-06T14:48:25;6.82;;;1.90;;
31284;SDS011;56605;51.516;6.742;2022-11-06T14:50:53;5.60;;;2.58;;
31284;SDS011;56605;51.516;6.742;2022-11-06T14:53:20;5.82;;;2.83;;
31284;SDS011;56605;51.516;6.742;2022-11-06T14:56:02;8.45;;;2.97;;
31284;SDS011;56605;51.516;6.742;2022-11-06T15:03:53;13.60;;;3.85;;
31284;SDS011;56605;51.516;6.742;2022-11-06T15:08:54;8.57;;;3.83;;
31284;SDS011;56605;51.516;6.742;2022-11-06T15:13:52;7.30;;;3.10;;
31284;SDS011;56605;51.516;6.742;2022-11-06T15:16:18;10.85;;;3.13;;
31284;SDS011;56605;51.516;6.742;2022-11-06T15:18:46;7.47;;;3.30;;
31284;SDS011;56605;51.516;6.742;2022-11-06T15:21:15;10.50;;;3.25;;
31284;SDS011;56605;51.516;6.742;2022-11-06T15:24:00;8.05;;;2.83;;
31284;SDS011;56605;51.516;6.742;2022-11-06T15:31:48;7.45;;;3.17;;
31284;SDS011;56605;51.516;6.742;2022-11-06T15:34:26;8.40;;;3.40;;
31284;SDS011;56605;51.516;6.742;2022-11-06T15:37:07;10.82;;;4.65;;
31284;SDS011;56605;51.516;6.742;2022-11-06T15:39:37;14.50;;;6.03;;
31284;SDS011;56605;51.516;6.742;2022-11-06T15:42:08;17.98;;;4.80;;
31284;SDS011;56605;51.516;6.742;2022-11-06T15:44:39;4.78;;;2.22;;
31284;SDS011;56605;51.516;6.742;2022-11-06T15:47:17;12.52;;;4.20;;
31284;SDS011;56605;51.516;6.742;2022-11-06T15:49:44;12.23;;;4.20;;
31284;SDS011;56605;51.516;6.742;2022-11-06T15:52:15;17.33;;;5.15;;
31284;SDS011;56605;51.516;6.742;2022-11-06T15:54:42;10.93;;;4.45;;
31284;SDS011;56605;51.516;6.742;2022-11-06T15:57:15;15.10;;;4.25;;
31284;SDS011;56605;51.516;6.742;2022-11-06T15:59:45;11.43;;;5.05;;
31284;SDS011;56605;51.516;6.742;2022-11-06T16:02:17;7.20;;;3.13;;
31284;SDS011;56605;51.516;6.742;2022-11-06T16:04:46;4.03;;;1.80;;
31284;SDS011;56605;51.516;6.742;2022-11-06T16:07:13;5.32;;;2.53;;
31284;SDS011;56605;51.516;6.742;2022-11-06T16:09:41;5.28;;;3.05;;
31284;SDS011;56605;51.516;6.742;2022-11-06T16:12:14;5.82;;;2.50;;
31284;SDS011;56605;51.516;6.742;2022-11-06T16:14:42;5.15;;;1.67;;
31284;SDS011;56605;51.516;6.742;2022-11-06T16:17:09;6.10;;;2.22;;
31284;SDS011;56605;51.516;6.742;2022-11-06T16:19:40;8.38;;;2.65;;
31284;SDS011;56605;51.516;6.742;2022-11-06T16:22:13;3.15;;;1.80;;
31284;SDS011;56605;51.516;6.742;2022-11-06T16:27:13;5.82;;;1.80;;
31284;SDS011;56605;51.516;6.742;2022-11-06T16:29:43;5.25;;;2.28;;
31284;SDS011;56605;51.516;6.742;2022-11-06T16:32:14;4.88;;;2.78;;
31284;SDS011;56605;51.516;6.742;2022-11-06T16:34:47;12.85;;;3.53;;
31284;SDS011;56605;51.516;6.742;2022-11-06T16:39:47;7.50;;;3.88;;
31284;SDS011;56605;51.516;6.742;2022-11-06T16:47:32;6.57;;;2.25;;
31284;SDS011;56605;51.516;6.742;2022-11-06T16:49:57;9.10;;;2.40;;
31284;SDS011;56605;51.516;6.742;2022-11-06T16:52:35;4.75;;;2.40;;
31284;SDS011;56605;51.516;6.742;2022-11-06T16:55:04;2.97;;;1.90;;
31284;SDS011;56605;51.516;6.742;2022-11-06T16:57:46;6.35;;;2.63;;
31284;SDS011;56605;51.516;6.742;2022-11-06T17:02:47;7.93;;;2.03;;
31284;SDS011;56605;51.516;6.742;2022-11-06T17:05:23;4.65;;;2.13;;
31284;SDS011;56605;51.516;6.742;2022-11-06T17:08:03;4.55;;;1.85;;
31284;SDS011;56605;51.516;6.742;2022-11-06T17:10:39;4.85;;;2.38;;
31284;SDS011;56605;51.516;6.742;2022-11-06T17:13:08;3.95;;;2.22;;
31284;SDS011;56605;51.516;6.742;2022-11-06T17:15:36;3.42;;;2.42;;
31284;SDS011;56605;51.516;6.742;2022-11-06T17:18:01;4.13;;;2.28;;
31284;SDS011;56605;51.516;6.742;2022-11-06T17:20:26;6.22;;;2.75;;
31284;SDS011;56605;51.516;6.742;2022-11-06T17:22:53;7.22;;;3.53;;
31284;SDS011;56605;51.516;6.742;2022-11-06T17:25:19;11.77;;;4.10;;
31284;SDS011;56605;51.516;6.742;2022-11-06T17:27:44;6.03;;;2.92;;
31284;SDS011;56605;51.516;6.742;2022-11-06T17:30:13;3.90;;;1.83;;